Time;durP1;ratioP1;P1;durP2;ratioP2;P2;SDS_P1;SDS_P2;PMS_P1;PMS_P2;Temp;Humidity;BMP_temperature;BMP_pressure;BME280_temperature;BME280_humidity;BME280_pressure;Samples;Min_cycle;Max_cycle;Signal;HPM_P1;HPM_P2
2023/06/17 00:02:02;;;;;;;0.80;0.53;;;;;;;;;;5023899;28;20507;-67
2023/06/17 00:04:28;;;;;;;0.55;0.40;;;;;;;;;;5051123;28;20336;-69
2023/06/17 00:06:53;;;;;;;1.40;0.75;;;;;;;;;;5058886;28;20466;-69
2023/06/17 00:09:19;;;;;;;0.60;0.40;;;;;;;;;;5042611;28;20059;-72
2023/06/17 00:11:44;;;;;;;1.23;0.40;;;;;;;;;;5025973;28;20098;-73
2023/06/17 00:14:09;;;;;;;1.53;0.90;;;;;;;;;;5030002;28;20032;-74
2023/06/17 00:16:36;;;;;;;1.50;1.20;;;;;;;;;;5017725;28;20302;-75
2023/06/17 00:19:04;;;;;;;3.08;0.80;;;;;;;;;;5051630;28;20089;-71
2023/06/17 00:21:30;;;;;;;0.90;0.68;;;;;;;;;;5040700;28;20013;-73
2023/06/17 00:23:55;;;;;;;0.93;0.65;;;;;;;;;;5055149;28;20043;-75
2023/06/17 00:26:20;;;;;;;3.27;0.80;;;;;;;;;;5012234;28;20075;-76
2023/06/17 00:28:45;;;;;;;2.33;0.77;;;;;;;;;;5032799;28;20358;-71
2023/06/17 00:31:11;;;;;;;1.83;0.95;;;;;;;;;;5061492;28;20060;-69
2023/06/17 00:33:36;;;;;;;1.10;0.80;;;;;;;;;;5027708;28;20426;-71
2023/06/17 00:36:02;;;;;;;1.77;0.90;;;;;;;;;;5029793;28;20320;-77
2023/06/17 00:38:27;;;;;;;1.48;1.00;;;;;;;;;;5046967;28;20486;-70
2023/06/17 00:40:53;;;;;;;1.67;1.00;;;;;;;;;;5031534;28;20026;-69
2023/06/17 00:43:18;;;;;;;1.90;0.80;;;;;;;;;;5046588;28;20267;-69
2023/06/17 00:45:43;;;;;;;3.67;1.20;;;;;;;;;;5026677;28;20286;-72
2023/06/17 00:48:08;;;;;;;2.03;0.93;;;;;;;;;;5049174;28;20366;-75
2023/06/17 00:50:36;;;;;;;1.50;0.80;;;;;;;;;;5036657;28;20752;-75
2023/06/17 00:53:01;;;;;;;1.50;0.70;;;;;;;;;;5029257;28;20044;-71
2023/06/17 00:55:26;;;;;;;0.80;0.70;;;;;;;;;;5039632;28;20020;-73
2023/06/17 00:57:53;;;;;;;1.40;0.63;;;;;;;;;;5041195;28;20468;-71
2023/06/17 01:00:18;;;;;;;1.20;0.80;;;;;;;;;;5027693;28;20025;-73
2023/06/17 01:02:44;;;;;;;2.17;0.75;;;;;;;;;;5031367;28;20513;-74
2023/06/17 01:05:11;;;;;;;1.90;0.63;;;;;;;;;;5016816;28;20403;-68
2023/06/17 01:07:42;;;;;;;1.15;0.63;;;;;;;;;;5035521;28;20016;-69
2023/06/17 01:10:07;;;;;;;1.13;0.60;;;;;;;;;;5038185;28;20032;-70
2023/06/17 01:12:33;;;;;;;0.88;0.52;;;;;;;;;;5044069;28;20106;-74
2023/06/17 01:14:58;;;;;;;1.50;0.70;;;;;;;;;;5027420;28;20521;-69
2023/06/17 01:17:23;;;;;;;1.10;0.55;;;;;;;;;;5043873;28;20333;-69
2023/06/17 01:19:49;;;;;;;0.85;0.60;;;;;;;;;;5039562;28;20032;-72
2023/06/17 01:22:15;;;;;;;0.63;0.50;;;;;;;;;;5027901;28;20040;-73
2023/06/17 01:24:40;;;;;;;1.23;0.60;;;;;;;;;;5039127;28;20680;-76
2023/06/17 01:27:06;;;;;;;2.60;0.70;;;;;;;;;;5031654;28;20036;-71
2023/06/17 01:29:32;;;;;;;1.38;0.50;;;;;;;;;;5083758;28;20044;-76
2023/06/17 01:32:00;;;;;;;1.35;0.60;;;;;;;;;;5030442;28;20135;-72
2023/06/17 01:34:44;;;;;;;1.00;0.60;;;;;;;;;;5023069;28;20036;-75
2023/06/17 01:37:10;;;;;;;1.17;0.70;;;;;;;;;;5047991;28;20217;-71
2023/06/17 01:39:36;;;;;;;1.40;0.55;;;;;;;;;;5038666;28;20033;-70
2023/06/17 01:42:01;;;;;;;1.95;0.50;;;;;;;;;;5025356;28;20470;-69
2023/06/17 01:44:27;;;;;;;0.85;0.50;;;;;;;;;;5045715;28;20032;-74
2023/06/17 01:46:52;;;;;;;1.23;0.80;;;;;;;;;;5047264;28;20042;-71
2023/06/17 01:49:17;;;;;;;1.48;0.77;;;;;;;;;;5037529;28;20480;-69
2023/06/17 01:51:42;;;;;;;1.20;0.60;;;;;;;;;;5048839;28;20052;-67
2023/06/17 01:54:08;;;;;;;1.53;0.53;;;;;;;;;;5038097;28;20298;-75
2023/06/17 01:56:33;;;;;;;1.53;0.60;;;;;;;;;;5045969;28;20752;-72
2023/06/17 01:58:58;;;;;;;2.13;0.80;;;;;;;;;;5022199;28;20740;-72
2023/06/17 02:01:23;;;;;;;1.25;0.68;;;;;;;;;;5047862;28;20458;-73
2023/06/17 02:03:49;;;;;;;1.20;0.60;;;;;;;;;;5039115;28;20033;-75
2023/06/17 02:06:14;;;;;;;1.90;0.80;;;;;;;;;;5065468;28;20065;-73
2023/06/17 02:08:40;;;;;;;1.88;0.80;;;;;;;;;;5030960;28;20275;-72
2023/06/17 02:11:05;;;;;;;2.95;0.80;;;;;;;;;;5045435;28;20673;-70
2023/06/17 02:13:31;;;;;;;2.20;0.70;;;;;;;;;;5038282;28;20041;-74
2023/06/17 02:15:56;;;;;;;2.17;0.70;;;;;;;;;;5063570;28;20743;-74
2023/06/17 02:18:22;;;;;;;3.28;0.80;;;;;;;;;;5032636;28;20275;-70
2023/06/17 02:20:47;;;;;;;2.72;0.63;;;;;;;;;;5046293;28;20033;-74
2023/06/17 02:23:12;;;;;;;2.25;0.63;;;;;;;;;;5028652;28;20072;-68
2023/06/17 02:25:39;;;;;;;1.33;0.63;;;;;;;;;;5041590;28;20041;-70
2023/06/17 02:28:04;;;;;;;1.23;0.70;;;;;;;;;;5019838;28;20110;-71
2023/06/17 02:30:30;;;;;;;2.22;0.70;;;;;;;;;;5047767;28;20132;-72
2023/06/17 02:32:55;;;;;;;1.60;0.70;;;;;;;;;;5052447;28;20481;-74
2023/06/17 02:35:20;;;;;;;2.40;0.73;;;;;;;;;;5038885;28;20491;-71
2023/06/17 02:37:45;;;;;;;1.47;0.60;;;;;;;;;;5034366;28;20283;-69
2023/06/17 02:40:11;;;;;;;1.70;0.52;;;;;;;;;;5038729;28;20293;-74
2023/06/17 02:42:36;;;;;;;1.90;0.70;;;;;;;;;;5060366;28;20043;-68
2023/06/17 02:45:02;;;;;;;1.50;0.70;;;;;;;;;;5033572;28;20580;-71
2023/06/17 02:47:27;;;;;;;1.17;0.60;;;;;;;;;;5030761;28;20129;-72
2023/06/17 02:49:53;;;;;;;1.60;0.70;;;;;;;;;;5065027;28;20068;-73
2023/06/17 02:52:18;;;;;;;1.53;0.40;;;;;;;;;;5064828;28;20305;-72
2023/06/17 02:54:43;;;;;;;1.30;0.40;;;;;;;;;;5043781;28;20823;-65
2023/06/17 02:57:08;;;;;;;0.98;0.63;;;;;;;;;;5048115;28;20279;-74
2023/06/17 02:59:35;;;;;;;1.83;0.50;;;;;;;;;;5058114;28;20044;-73
2023/06/17 03:02:01;;;;;;;0.70;0.45;;;;;;;;;;5044326;28;20082;-71
2023/06/17 03:04:34;;;;;;;1.23;0.43;;;;;;;;;;5045298;28;20029;-65
2023/06/17 03:07:00;;;;;;;1.45;0.60;;;;;;;;;;5037342;28;20498;-65
2023/06/17 03:09:26;;;;;;;0.80;0.40;;;;;;;;;;5019240;28;20045;-73
2023/06/17 03:11:51;;;;;;;2.22;0.65;;;;;;;;;;5051473;28;20044;-74
2023/06/17 03:14:19;;;;;;;1.05;0.45;;;;;;;;;;5036168;28;20041;-76
2023/06/17 03:16:44;;;;;;;1.05;0.60;;;;;;;;;;5061464;28;20523;-72
2023/06/17 03:19:09;;;;;;;1.20;0.60;;;;;;;;;;5030158;28;20040;-68
2023/06/17 03:21:40;;;;;;;1.13;0.67;;;;;;;;;;5065598;28;20098;-69
2023/06/17 03:24:05;;;;;;;1.65;0.63;;;;;;;;;;5019613;28;20291;-77
2023/06/17 03:26:31;;;;;;;0.95;0.57;;;;;;;;;;5057147;28;20605;-74
2023/06/17 03:28:56;;;;;;;2.10;0.60;;;;;;;;;;5060297;28;20037;-77
2023/06/17 03:31:21;;;;;;;2.47;0.60;;;;;;;;;;5020536;28;20869;-69
2023/06/17 03:33:47;;;;;;;1.55;0.50;;;;;;;;;;5064646;28;20294;-70
2023/06/17 03:36:12;;;;;;;2.42;0.70;;;;;;;;;;5046742;28;20098;-67
2023/06/17 03:38:38;;;;;;;1.00;0.50;;;;;;;;;;5042423;28;20162;-70
2023/06/17 03:41:03;;;;;;;1.50;0.50;;;;;;;;;;5061579;28;20040;-69
2023/06/17 03:43:28;;;;;;;1.03;0.60;;;;;;;;;;5048053;28;20283;-71
2023/06/17 03:45:53;;;;;;;1.33;0.60;;;;;;;;;;5046854;28;20818;-69
2023/06/17 03:48:19;;;;;;;1.20;0.50;;;;;;;;;;5063529;28;20713;-70
2023/06/17 03:50:44;;;;;;;1.80;0.70;;;;;;;;;;5063384;28;20285;-70
2023/06/17 03:53:10;;;;;;;1.65;1.00;;;;;;;;;;5058971;28;20310;-72
2023/06/17 03:55:36;;;;;;;0.65;0.40;;;;;;;;;;5038229;28;20107;-72
2023/06/17 03:58:01;;;;;;;1.35;0.50;;;;;;;;;;5032868;28;20486;-73
2023/06/17 04:00:26;;;;;;;1.00;0.70;;;;;;;;;;5038341;28;20041;-71
2023/06/17 04:02:52;;;;;;;1.15;0.50;;;;;;;;;;5054800;28;20383;-71
2023/06/17 04:05:17;;;;;;;1.27;0.50;;;;;;;;;;5067139;28;20063;-68
2023/06/17 04:07:43;;;;;;;2.22;0.45;;;;;;;;;;5051069;28;20045;-68
2023/06/17 04:10:08;;;;;;;0.77;0.45;;;;;;;;;;5049199;28;20495;-72
2023/06/17 04:12:37;;;;;;;0.95;0.55;;;;;;;;;;5049544;28;20053;-65
2023/06/17 04:15:04;;;;;;;0.70;0.50;;;;;;;;;;5045044;28;20395;-67
2023/06/17 04:17:29;;;;;;;0.90;0.50;;;;;;;;;;5053545;28;20041;-70
2023/06/17 04:19:56;;;;;;;1.67;0.60;;;;;;;;;;5049199;28;20028;-71
2023/06/17 04:22:21;;;;;;;0.47;0.30;;;;;;;;;;5058539;28;20302;-72
2023/06/17 04:24:46;;;;;;;1.43;0.40;;;;;;;;;;5037073;28;20686;-70
2023/06/17 04:27:12;;;;;;;1.38;0.50;;;;;;;;;;5039103;28;20362;-73
2023/06/17 04:29:37;;;;;;;1.35;0.40;;;;;;;;;;5023418;28;20032;-75
2023/06/17 04:32:03;;;;;;;0.90;0.50;;;;;;;;;;5058948;28;20606;-63
2023/06/17 04:34:28;;;;;;;0.65;0.30;;;;;;;;;;5063102;28;20286;-71
2023/06/17 04:36:57;;;;;;;0.60;0.40;;;;;;;;;;5046097;28;20036;-73
2023/06/17 04:39:26;;;;;;;0.82;0.40;;;;;;;;;;5056073;28;20886;-75
2023/06/17 04:41:52;;;;;;;1.20;0.40;;;;;;;;;;5024965;28;20040;-73
2023/06/17 04:44:17;;;;;;;0.40;0.30;;;;;;;;;;5057863;28;20041;-78
2023/06/17 04:46:43;;;;;;;1.75;0.40;;;;;;;;;;5040907;28;20043;-71
2023/06/17 04:49:09;;;;;;;1.63;0.40;;;;;;;;;;5031519;28;20059;-73
2023/06/17 04:51:38;;;;;;;0.60;0.40;;;;;;;;;;5049564;28;20794;-67
2023/06/17 04:54:05;;;;;;;0.85;0.35;;;;;;;;;;5047971;28;20431;-70
2023/06/17 04:56:30;;;;;;;1.48;0.32;;;;;;;;;;5032195;28;20098;-73
2023/06/17 04:58:55;;;;;;;0.65;0.40;;;;;;;;;;5031713;28;20033;-71
2023/06/17 05:01:21;;;;;;;1.25;0.40;;;;;;;;;;5039078;28;20121;-72
2023/06/17 05:03:46;;;;;;;1.33;0.38;;;;;;;;;;5029223;28;20701;-66
2023/06/17 05:06:11;;;;;;;1.60;0.60;;;;;;;;;;5050739;28;20639;-70
2023/06/17 05:08:37;;;;;;;1.92;0.50;;;;;;;;;;5022815;28;20368;-70
2023/06/17 05:11:02;;;;;;;0.80;0.40;;;;;;;;;;5031045;28;20073;-74
2023/06/17 05:13:27;;;;;;;1.33;0.40;;;;;;;;;;5029449;28;20077;-69
2023/06/17 05:15:52;;;;;;;1.23;0.30;;;;;;;;;;5049759;28;20873;-68
2023/06/17 05:18:18;;;;;;;1.00;0.40;;;;;;;;;;5033287;28;20823;-70
2023/06/17 05:20:43;;;;;;;2.20;0.40;;;;;;;;;;5031811;28;20120;-68
2023/06/17 05:23:08;;;;;;;1.02;0.30;;;;;;;;;;5050562;28;20290;-71
2023/06/17 05:25:33;;;;;;;1.23;0.20;;;;;;;;;;5049235;28;20040;-72
2023/06/17 05:28:00;;;;;;;1.55;0.40;;;;;;;;;;5048544;28;20048;-69
2023/06/17 05:30:25;;;;;;;1.48;0.30;;;;;;;;;;5028497;28;20106;-70
2023/06/17 05:32:50;;;;;;;1.27;0.30;;;;;;;;;;5019429;28;21580;-67
2023/06/17 05:35:16;;;;;;;1.55;0.70;;;;;;;;;;5049338;28;20297;-70
2023/06/17 05:37:41;;;;;;;1.40;0.30;;;;;;;;;;5048184;28;20507;-70
2023/06/17 05:40:06;;;;;;;0.90;0.60;;;;;;;;;;5037149;28;20044;-68
2023/06/17 05:42:32;;;;;;;0.85;0.30;;;;;;;;;;5032411;28;20322;-71
2023/06/17 05:44:57;;;;;;;1.35;0.30;;;;;;;;;;5032802;28;20053;-72
2023/06/17 05:47:22;;;;;;;1.65;0.40;;;;;;;;;;5049498;28;20120;-72
2023/06/17 05:49:47;;;;;;;1.83;0.40;;;;;;;;;;5049548;28;20515;-66
2023/06/17 05:52:13;;;;;;;0.97;0.30;;;;;;;;;;5034740;28;20318;-65
2023/06/17 05:54:38;;;;;;;0.63;0.20;;;;;;;;;;5048614;28;20278;-69
2023/06/17 05:57:04;;;;;;;0.90;0.43;;;;;;;;;;5048149;28;20060;-71
2023/06/17 05:59:30;;;;;;;0.82;0.50;;;;;;;;;;5047974;28;20145;-69
2023/06/17 06:01:55;;;;;;;1.02;0.30;;;;;;;;;;5048165;28;20041;-71
2023/06/17 06:04:20;;;;;;;1.60;0.33;;;;;;;;;;5030703;28;20589;-71
2023/06/17 06:06:45;;;;;;;0.67;0.30;;;;;;;;;;5047602;28;20295;-68
2023/06/17 06:09:11;;;;;;;1.87;0.50;;;;;;;;;;5049864;28;20318;-74
2023/06/17 06:11:36;;;;;;;2.10;0.30;;;;;;;;;;5054575;28;20064;-70
2023/06/17 06:14:01;;;;;;;2.43;0.30;;;;;;;;;;5038013;28;20052;-73
2023/06/17 06:16:26;;;;;;;0.50;0.25;;;;;;;;;;5050818;28;20283;-77
2023/06/17 06:18:52;;;;;;;2.28;0.50;;;;;;;;;;5038382;28;20052;-74
2023/06/17 06:21:17;;;;;;;1.42;0.50;;;;;;;;;;5054520;28;20691;-72
2023/06/17 06:23:42;;;;;;;2.38;0.35;;;;;;;;;;5054119;28;20055;-76
2023/06/17 06:26:07;;;;;;;1.15;0.40;;;;;;;;;;5025968;28;20082;-66
2023/06/17 06:28:33;;;;;;;0.83;0.20;;;;;;;;;;5045423;28;20029;-73
2023/06/17 06:30:58;;;;;;;0.70;0.37;;;;;;;;;;5055451;28;20800;-72
2023/06/17 06:33:23;;;;;;;1.60;0.43;;;;;;;;;;5047490;28;20437;-70
2023/06/17 06:35:48;;;;;;;2.05;0.35;;;;;;;;;;5050395;28;20033;-71
2023/06/17 06:38:14;;;;;;;1.10;0.40;;;;;;;;;;5027519;28;20389;-67
2023/06/17 06:40:40;;;;;;;0.90;0.40;;;;;;;;;;5023825;28;20088;-68
2023/06/17 06:43:05;;;;;;;0.60;0.32;;;;;;;;;;5032870;28;20051;-70
2023/06/17 06:45:30;;;;;;;0.95;0.40;;;;;;;;;;5031758;28;20035;-71
2023/06/17 06:47:56;;;;;;;0.93;0.40;;;;;;;;;;5035887;28;20047;-70
2023/06/17 06:50:21;;;;;;;1.73;0.30;;;;;;;;;;5049150;28;20036;-67
2023/06/17 06:52:46;;;;;;;1.50;0.30;;;;;;;;;;5037029;28;20836;-66
2023/06/17 06:55:11;;;;;;;1.30;0.33;;;;;;;;;;5051361;28;21076;-72
2023/06/17 06:57:37;;;;;;;1.10;0.30;;;;;;;;;;5031373;28;20295;-75
2023/06/17 07:00:07;;;;;;;1.38;0.43;;;;;;;;;;5032406;28;20295;-72
2023/06/17 07:02:33;;;;;;;1.00;0.30;;;;;;;;;;5019150;28;20071;-74
2023/06/17 07:04:58;;;;;;;0.70;0.23;;;;;;;;;;5015177;28;20123;-68
2023/06/17 07:07:23;;;;;;;2.33;0.40;;;;;;;;;;5050085;28;20111;-73
2023/06/17 07:09:48;;;;;;;2.27;0.40;;;;;;;;;;5049454;28;20792;-71
2023/06/17 07:12:14;;;;;;;0.73;0.30;;;;;;;;;;5050130;28;22346;-72
2023/06/17 07:14:39;;;;;;;1.42;0.38;;;;;;;;;;5020095;28;20426;-72
2023/06/17 07:17:04;;;;;;;2.13;0.30;;;;;;;;;;5040072;28;20029;-70
2023/06/17 07:19:30;;;;;;;0.90;0.30;;;;;;;;;;5047533;28;20035;-73
2023/06/17 07:21:55;;;;;;;1.70;0.47;;;;;;;;;;5063802;28;20100;-72
2023/06/17 07:24:20;;;;;;;2.13;0.33;;;;;;;;;;5059729;28;20040;-70
2023/06/17 07:26:46;;;;;;;2.05;0.40;;;;;;;;;;5061503;28;20738;-76
2023/06/17 07:29:11;;;;;;;1.50;0.50;;;;;;;;;;5053504;28;20028;-77
2023/06/17 07:31:36;;;;;;;0.93;0.20;;;;;;;;;;5057349;28;20037;-70
2023/06/17 07:34:02;;;;;;;0.63;0.30;;;;;;;;;;5046391;28;20829;-75
2023/06/17 07:36:27;;;;;;;1.47;0.30;;;;;;;;;;5054082;28;20357;-76
2023/06/17 07:38:52;;;;;;;1.17;0.50;;;;;;;;;;5030168;28;20271;-78
2023/06/17 07:41:17;;;;;;;1.52;0.25;;;;;;;;;;5053678;28;20649;-73
2023/06/17 07:43:43;;;;;;;1.90;0.50;;;;;;;;;;5064261;28;20047;-68
2023/06/17 07:46:08;;;;;;;1.53;0.30;;;;;;;;;;5072339;28;20017;-72
2023/06/17 07:48:33;;;;;;;1.27;0.50;;;;;;;;;;5069073;28;20768;-73
2023/06/17 07:50:58;;;;;;;1.40;0.35;;;;;;;;;;5050571;28;20283;-68
2023/06/17 07:53:24;;;;;;;0.80;0.50;;;;;;;;;;5041095;28;20037;-76
2023/06/17 07:55:49;;;;;;;1.33;0.40;;;;;;;;;;5064962;28;20328;-76
2023/06/17 07:58:14;;;;;;;0.83;0.40;;;;;;;;;;5050208;28;20024;-78
2023/06/17 08:00:39;;;;;;;1.80;0.50;;;;;;;;;;5048661;28;20393;-72
2023/06/17 08:03:05;;;;;;;0.70;0.30;;;;;;;;;;5045265;28;20274;-69
2023/06/17 08:05:30;;;;;;;1.63;0.30;;;;;;;;;;5039079;28;20025;-75
2023/06/17 08:07:56;;;;;;;1.63;0.30;;;;;;;;;;5053653;28;20309;-77
2023/06/17 08:10:21;;;;;;;2.30;0.30;;;;;;;;;;5036063;28;22084;-74
2023/06/17 08:12:47;;;;;;;0.65;0.22;;;;;;;;;;5042894;28;20040;-68
2023/06/17 08:15:12;;;;;;;1.45;0.47;;;;;;;;;;5063970;28;20036;-71
2023/06/17 08:17:37;;;;;;;1.45;0.40;;;;;;;;;;5066152;28;20025;-73
2023/06/17 08:20:04;;;;;;;1.00;0.20;;;;;;;;;;5053655;28;20017;-65
2023/06/17 08:22:29;;;;;;;1.23;0.38;;;;;;;;;;5049107;28;20013;-69
2023/06/17 08:24:55;;;;;;;0.82;0.40;;;;;;;;;;5065042;28;20055;-70
2023/06/17 08:27:20;;;;;;;0.73;0.20;;;;;;;;;;5063440;28;20651;-74
2023/06/17 08:29:45;;;;;;;0.80;0.20;;;;;;;;;;5052120;28;20405;-69
2023/06/17 08:32:10;;;;;;;1.97;0.47;;;;;;;;;;5044349;28;20398;-72
2023/06/17 08:34:36;;;;;;;0.93;0.30;;;;;;;;;;5042678;28;20289;-77
2023/06/17 08:37:04;;;;;;;1.00;0.40;;;;;;;;;;5039739;28;20291;-72
2023/06/17 08:39:32;;;;;;;0.98;0.30;;;;;;;;;;5040031;28;20095;-75
2023/06/17 08:41:57;;;;;;;1.30;0.52;;;;;;;;;;5026028;28;20028;-80
2023/06/17 08:44:23;;;;;;;1.70;0.40;;;;;;;;;;5031721;28;20041;-71
2023/06/17 08:46:48;;;;;;;0.75;0.38;;;;;;;;;;5046486;28;20512;-75
2023/06/17 08:49:14;;;;;;;1.65;0.40;;;;;;;;;;5014312;28;20402;-75
2023/06/17 08:51:39;;;;;;;1.27;0.67;;;;;;;;;;5052008;28;20049;-77
2023/06/17 08:54:04;;;;;;;1.33;0.50;;;;;;;;;;5040465;28;20097;-78
2023/06/17 08:56:29;;;;;;;2.40;0.70;;;;;;;;;;5061334;28;20302;-74
2023/06/17 08:58:55;;;;;;;1.73;0.60;;;;;;;;;;5057393;28;20036;-70
2023/06/17 09:01:23;;;;;;;1.17;0.47;;;;;;;;;;5064544;28;20262;-77
2023/06/17 09:03:52;;;;;;;1.40;0.73;;;;;;;;;;5063437;28;20054;-75
2023/06/17 09:06:21;;;;;;;1.33;0.60;;;;;;;;;;5051493;28;20059;-75
2023/06/17 09:08:52;;;;;;;1.75;0.63;;;;;;;;;;5038479;28;20036;-72
2023/06/17 09:11:25;;;;;;;1.10;0.50;;;;;;;;;;5034480;28;20029;-67
2023/06/17 09:13:53;;;;;;;1.45;0.80;;;;;;;;;;5057988;28;20106;-69
2023/06/17 09:16:24;;;;;;;2.25;0.80;;;;;;;;;;5062413;28;20124;-71
2023/06/17 09:18:53;;;;;;;1.65;0.80;;;;;;;;;;5058266;28;20044;-70
2023/06/17 09:21:18;;;;;;;2.20;0.93;;;;;;;;;;5063485;28;20032;-72
2023/06/17 09:23:50;;;;;;;1.47;0.67;;;;;;;;;;5054349;28;20058;-72
2023/06/17 09:26:15;;;;;;;1.60;0.82;;;;;;;;;;5037193;28;20049;-78
2023/06/17 09:28:40;;;;;;;1.87;0.90;;;;;;;;;;5023169;28;20044;-74
2023/06/17 09:31:06;;;;;;;1.43;0.80;;;;;;;;;;5043234;28;20098;-76
2023/06/17 09:33:31;;;;;;;1.58;0.90;;;;;;;;;;5082723;28;20383;-74
2023/06/17 09:36:00;;;;;;;1.17;0.70;;;;;;;;;;5070873;28;20025;-72
2023/06/17 09:38:26;;;;;;;2.28;0.82;;;;;;;;;;5036042;28;20417;-73
2023/06/17 09:40:51;;;;;;;1.30;0.70;;;;;;;;;;5067368;28;20175;-76
2023/06/17 09:43:17;;;;;;;1.10;0.63;;;;;;;;;;5045971;28;20079;-75
2023/06/17 09:45:44;;;;;;;1.20;0.70;;;;;;;;;;5069489;28;20278;-74
2023/06/17 09:48:09;;;;;;;1.05;0.80;;;;;;;;;;5043978;28;20130;-75
2023/06/17 09:50:36;;;;;;;2.78;0.70;;;;;;;;;;5080495;28;20048;-65
2023/06/17 09:53:02;;;;;;;1.10;0.60;;;;;;;;;;5028643;28;20048;-69
2023/06/17 09:55:28;;;;;;;2.03;0.60;;;;;;;;;;5076378;28;20036;-67
2023/06/17 09:57:54;;;;;;;0.77;0.55;;;;;;;;;;5062264;28;20072;-69
2023/06/17 10:00:23;;;;;;;1.20;0.73;;;;;;;;;;5063026;28;20033;-72
2023/06/17 10:02:48;;;;;;;1.20;0.60;;;;;;;;;;5021181;28;20279;-69
2023/06/17 10:05:15;;;;;;;0.97;0.50;;;;;;;;;;5045366;28;20047;-74
2023/06/17 10:07:41;;;;;;;1.40;0.77;;;;;;;;;;5025624;28;20295;-72
2023/06/17 10:10:08;;;;;;;0.80;0.40;;;;;;;;;;5035360;28;20031;-73
2023/06/17 10:12:33;;;;;;;0.93;0.43;;;;;;;;;;5052172;28;20115;-69
2023/06/17 10:14:59;;;;;;;0.80;0.40;;;;;;;;;;5045182;28;20028;-71
2023/06/17 10:17:24;;;;;;;0.80;0.50;;;;;;;;;;5063021;28;20048;-75
2023/06/17 10:19:49;;;;;;;0.60;0.30;;;;;;;;;;5045599;28;20049;-77
2023/06/17 10:22:15;;;;;;;1.95;0.60;;;;;;;;;;5059884;28;20408;-63
2023/06/17 10:24:41;;;;;;;1.05;0.60;;;;;;;;;;5039870;28;20501;-73
2023/06/17 10:27:06;;;;;;;0.80;0.40;;;;;;;;;;5052860;28;20040;-77
2023/06/17 10:29:32;;;;;;;1.50;0.63;;;;;;;;;;5047623;28;20051;-72
2023/06/17 10:32:08;;;;;;;1.30;0.43;;;;;;;;;;5053335;28;20434;-72
2023/06/17 10:34:33;;;;;;;1.95;0.50;;;;;;;;;;5052216;28;20052;-73
2023/06/17 10:36:58;;;;;;;0.70;0.40;;;;;;;;;;5053496;28;20101;-74
2023/06/17 10:39:24;;;;;;;0.52;0.40;;;;;;;;;;5049724;28;21007;-71
2023/06/17 10:41:50;;;;;;;1.75;0.70;;;;;;;;;;5056396;28;20124;-78
2023/06/17 10:44:34;;;;;;;1.58;0.60;;;;;;;;;;5052789;28;20056;-75
2023/06/17 10:46:59;;;;;;;1.85;0.60;;;;;;;;;;5046435;28;20188;-77
2023/06/17 10:49:25;;;;;;;0.93;0.55;;;;;;;;;;5035619;28;20207;-72
2023/06/17 10:51:50;;;;;;;1.70;0.77;;;;;;;;;;5062582;28;20052;-75
2023/06/17 10:54:34;;;;;;;1.17;0.80;;;;;;;;;;5064080;28;20044;-73
2023/06/17 10:57:02;;;;;;;2.15;1.10;;;;;;;;;;5028376;28;20044;-70
2023/06/17 10:59:29;;;;;;;2.10;1.00;;;;;;;;;;5055312;28;20021;-78
2023/06/17 11:02:07;;;;;;;1.92;0.80;;;;;;;;;;5043302;28;20027;-71
2023/06/17 11:04:34;;;;;;;2.33;1.00;;;;;;;;;;5053081;28;20411;-79
2023/06/17 11:06:59;;;;;;;2.80;1.02;;;;;;;;;;5048453;28;20506;-78
2023/06/17 11:09:25;;;;;;;2.47;1.02;;;;;;;;;;5033088;28;20044;-77
2023/06/17 11:11:51;;;;;;;1.77;1.10;;;;;;;;;;5043598;28;20481;-77
2023/06/17 11:14:19;;;;;;;2.25;1.10;;;;;;;;;;5040813;28;20481;-77
2023/06/17 11:16:44;;;;;;;2.15;1.23;;;;;;;;;;5069676;28;20708;-76
2023/06/17 11:19:10;;;;;;;1.60;1.10;;;;;;;;;;5044149;28;20112;-69
2023/06/17 11:21:37;;;;;;;2.33;1.23;;;;;;;;;;5034312;28;20673;-73
2023/06/17 11:24:02;;;;;;;2.47;1.20;;;;;;;;;;5061583;28;20040;-76
2023/06/17 11:26:27;;;;;;;2.10;1.05;;;;;;;;;;5060310;28;20111;-81
2023/06/17 11:28:52;;;;;;;2.10;1.10;;;;;;;;;;5033469;28;20108;-73
2023/06/17 11:31:18;;;;;;;2.27;1.33;;;;;;;;;;5040912;28;20051;-70
2023/06/17 11:33:43;;;;;;;1.80;1.10;;;;;;;;;;5061366;28;20045;-75
2023/06/17 11:36:13;;;;;;;2.80;1.38;;;;;;;;;;5038181;28;20033;-73
2023/06/17 11:38:38;;;;;;;4.72;1.60;;;;;;;;;;5043111;28;20052;-71
2023/06/17 11:41:04;;;;;;;2.35;1.20;;;;;;;;;;5036758;28;20036;-75
2023/06/17 11:43:29;;;;;;;3.30;1.60;;;;;;;;;;5043893;28;20087;-78
2023/06/17 11:45:58;;;;;;;2.53;1.30;;;;;;;;;;5054030;28;20278;-76
2023/06/17 11:48:27;;;;;;;2.47;1.60;;;;;;;;;;5042140;28;20326;-69
2023/06/17 11:50:53;;;;;;;4.18;1.92;;;;;;;;;;5045506;28;20423;-76
2023/06/17 11:53:27;;;;;;;3.20;1.80;;;;;;;;;;5029521;28;20498;-75
2023/06/17 11:55:52;;;;;;;3.58;1.90;;;;;;;;;;5018007;28;20044;-74
2023/06/17 11:58:18;;;;;;;2.73;1.60;;;;;;;;;;5059074;28;20044;-78
2023/06/17 12:00:44;;;;;;;2.58;1.48;;;;;;;;;;5064765;28;20328;-74
2023/06/17 12:03:09;;;;;;;2.08;1.58;;;;;;;;;;5045908;28;20521;-78
2023/06/17 12:05:35;;;;;;;2.17;1.50;;;;;;;;;;5020014;28;20070;-67
2023/06/17 12:08:00;;;;;;;2.03;1.37;;;;;;;;;;5022998;28;20052;-72
2023/06/17 12:10:26;;;;;;;2.58;1.38;;;;;;;;;;5046540;28;20040;-74
2023/06/17 12:12:53;;;;;;;2.53;1.73;;;;;;;;;;5020612;28;20202;-75
2023/06/17 12:15:24;;;;;;;1.92;1.55;;;;;;;;;;5039371;28;20040;-70
2023/06/17 12:17:49;;;;;;;2.10;1.30;;;;;;;;;;5044050;28;20029;-78
2023/06/17 12:20:15;;;;;;;2.43;1.30;;;;;;;;;;5069462;28;20525;-70
2023/06/17 12:22:41;;;;;;;2.03;1.10;;;;;;;;;;5049945;28;20384;-78
2023/06/17 12:25:06;;;;;;;2.25;1.10;;;;;;;;;;5051575;28;20652;-76
2023/06/17 12:27:32;;;;;;;1.60;1.10;;;;;;;;;;5044125;28;20037;-76
2023/06/17 12:30:00;;;;;;;1.70;1.05;;;;;;;;;;5032180;28;20032;-75
2023/06/17 12:32:25;;;;;;;1.92;1.20;;;;;;;;;;5013995;28;20056;-74
2023/06/17 12:34:51;;;;;;;1.90;1.10;;;;;;;;;;5064375;28;20032;-76
2023/06/17 12:37:18;;;;;;;1.77;1.20;;;;;;;;;;5056273;28;20040;-68
2023/06/17 12:39:43;;;;;;;1.98;1.25;;;;;;;;;;5027992;28;20137;-71
2023/06/17 12:42:09;;;;;;;2.57;1.10;;;;;;;;;;5036530;28;20281;-78
2023/06/17 12:44:34;;;;;;;1.75;1.20;;;;;;;;;;5041668;28;20127;-79
2023/06/17 12:46:59;;;;;;;1.77;1.10;;;;;;;;;;5052075;28;20029;-72
2023/06/17 12:49:25;;;;;;;1.53;1.00;;;;;;;;;;5062083;28;20043;-77
2023/06/17 12:51:50;;;;;;;2.00;0.90;;;;;;;;;;5066549;28;20307;-75
2023/06/17 12:54:16;;;;;;;2.30;1.00;;;;;;;;;;5063094;28;20115;-65
2023/06/17 12:56:42;;;;;;;3.88;1.20;;;;;;;;;;5063310;28;20662;-73
2023/06/17 12:59:07;;;;;;;2.72;0.90;;;;;;;;;;5059592;28;20073;-69
2023/06/17 13:01:34;;;;;;;1.83;0.90;;;;;;;;;;5055067;28;20064;-75
2023/06/17 13:03:59;;;;;;;1.50;0.98;;;;;;;;;;5056882;28;20028;-77
2023/06/17 13:06:26;;;;;;;1.38;0.90;;;;;;;;;;5035140;28;20062;-70
2023/06/17 13:08:51;;;;;;;0.98;0.73;;;;;;;;;;5030985;28;20032;-76
2023/06/17 13:11:16;;;;;;;1.90;0.70;;;;;;;;;;5064660;28;20036;-75
2023/06/17 13:13:42;;;;;;;2.17;0.90;;;;;;;;;;5047314;28;20297;-74
2023/06/17 13:16:07;;;;;;;1.48;0.73;;;;;;;;;;5037310;28;20872;-72
2023/06/17 13:18:33;;;;;;;1.30;0.65;;;;;;;;;;5057207;28;20499;-75
2023/06/17 13:20:58;;;;;;;1.00;0.65;;;;;;;;;;5039701;28;20036;-71
2023/06/17 13:23:23;;;;;;;2.50;0.63;;;;;;;;;;5031474;28;20037;-69
2023/06/17 13:25:49;;;;;;;1.33;0.70;;;;;;;;;;5034692;28;20801;-71
2023/06/17 13:28:14;;;;;;;1.08;0.50;;;;;;;;;;5063102;28;20534;-77
2023/06/17 13:30:39;;;;;;;1.77;0.70;;;;;;;;;;5046072;28;20555;-78
2023/06/17 13:33:06;;;;;;;1.37;0.77;;;;;;;;;;5047700;28;20306;-75
2023/06/17 13:35:31;;;;;;;1.38;0.60;;;;;;;;;;5045877;28;20044;-74
2023/06/17 13:37:58;;;;;;;1.52;0.70;;;;;;;;;;5060600;28;20419;-78
2023/06/17 13:40:23;;;;;;;1.40;0.65;;;;;;;;;;5055217;28;20043;-69
2023/06/17 13:42:48;;;;;;;1.47;0.80;;;;;;;;;;5045128;28;20029;-76
2023/06/17 13:45:14;;;;;;;3.50;0.90;;;;;;;;;;5045334;28;20283;-73
2023/06/17 13:47:39;;;;;;;1.50;0.70;;;;;;;;;;5051764;28;20040;-74
2023/06/17 13:50:04;;;;;;;1.47;0.70;;;;;;;;;;5038968;28;20048;-75
2023/06/17 13:52:30;;;;;;;1.60;0.70;;;;;;;;;;5047374;28;20306;-77
2023/06/17 13:54:55;;;;;;;3.40;0.80;;;;;;;;;;5029143;28;20033;-70
2023/06/17 13:57:20;;;;;;;3.08;0.85;;;;;;;;;;5053815;28;20114;-79
2023/06/17 13:59:46;;;;;;;1.58;0.90;;;;;;;;;;5042761;28;20471;-77
2023/06/17 14:02:11;;;;;;;2.08;0.70;;;;;;;;;;5052841;28;20048;-70
2023/06/17 14:04:36;;;;;;;1.23;0.60;;;;;;;;;;5030256;28;20043;-71
2023/06/17 14:07:02;;;;;;;1.85;0.60;;;;;;;;;;5053628;28;20056;-71
2023/06/17 14:09:27;;;;;;;2.13;0.77;;;;;;;;;;5055974;28;20049;-71
2023/06/17 14:11:52;;;;;;;1.63;0.77;;;;;;;;;;5013184;28;20352;-69
2023/06/17 14:14:18;;;;;;;2.40;0.70;;;;;;;;;;5049317;28;20166;-65
2023/06/17 14:16:43;;;;;;;2.33;0.70;;;;;;;;;;5028614;28;20881;-65
2023/06/17 14:19:08;;;;;;;1.13;0.67;;;;;;;;;;5048544;28;20338;-65
2023/06/17 14:21:34;;;;;;;2.37;0.70;;;;;;;;;;5048777;28;20286;-69
2023/06/17 14:24:03;;;;;;;1.33;0.60;;;;;;;;;;5032071;28;20075;-65
2023/06/17 14:26:29;;;;;;;1.05;0.70;;;;;;;;;;5047868;28;20061;-71
2023/06/17 14:28:54;;;;;;;1.48;0.80;;;;;;;;;;5011887;28;20672;-69
2023/06/17 14:31:19;;;;;;;2.37;0.93;;;;;;;;;;5019402;28;20045;-71
2023/06/17 14:33:45;;;;;;;1.23;0.90;;;;;;;;;;5051140;28;20397;-70
2023/06/17 14:36:10;;;;;;;0.97;0.60;;;;;;;;;;5050317;28;20100;-65